sensor_id;sensor_type;location;lat;lon;timestamp;P1;P2;P0
36453;PMS5003;22478;51.740;-1.314;2023-04-19T00:02:11;119;113;
36453;PMS5003;22478;51.740;-1.314;2023-04-19T00:04:38;105;101;
36453;PMS5003;22478;51.740;-1.314;2023-04-19T00:07:06;113;104;
36453;PMS5003;22478;51.740;-1.314;2023-04-19T00:09:33;99;95;
36453;PMS5003;22478;51.740;-1.314;2023-04-19T00:12:00;109;100;
36453;PMS5003;22478;51.740;-1.314;2023-04-19T00:14:27;108;105;
36453;PMS5003;22478;51.740;-1.314;2023-04-19T00:16:54;116;111;
36453;PMS5003;22478;51.740;-1.314;2023-04-19T00:19:22;112;108;
36453;PMS5003;22478;51.740;-1.314;2023-04-19T00:21:50;115;105;
36453;PMS5003;22478;51.740;-1.314;2023-04-19T00:24:17;111;105;
36453;PMS5003;22478;51.740;-1.314;2023-04-19T00:26:44;126;121;
36453;PMS5003;22478;51.740;-1.314;2023-04-19T00:29:12;125;121;
36453;PMS5003;22478;51.740;-1.314;2023-04-19T00:31:39;131;120;
36453;PMS5003;22478;51.740;-1.314;2023-04-19T00:34:06;145;136;
36453;PMS5003;22478;51.740;-1.314;2023-04-19T00:36:34;151;141;
36453;PMS5003;22478;51.740;-1.314;2023-04-19T00:39:01;142;135;
36453;PMS5003;22478;51.740;-1.314;2023-04-19T00:41:29;170;156;
36453;PMS5003;22478;51.740;-1.314;2023-04-19T00:43:57;177;171;
36453;PMS5003;22478;51.740;-1.314;2023-04-19T00:46:24;181;173;
36453;PMS5003;22478;51.740;-1.314;2023-04-19T00:48:51;168;164;
36453;PMS5003;22478;51.740;-1.314;2023-04-19T00:51:19;183;177;
36453;PMS5003;22478;51.740;-1.314;2023-04-19T00:53:46;194;183;
36453;PMS5003;22478;51.740;-1.314;2023-04-19T00:56:14;210;201;
36453;PMS5003;22478;51.740;-1.314;2023-04-19T00:58:43;205;193;
36453;PMS5003;22478;51.740;-1.314;2023-04-19T01:01:12;199;193;
36453;PMS5003;22478;51.740;-1.314;2023-04-19T01:03:39;199;176;
36453;PMS5003;22478;51.740;-1.314;2023-04-19T01:06:06;169;160;
36453;PMS5003;22478;51.740;-1.314;2023-04-19T01:08:33;167;150;
36453;PMS5003;22478;51.740;-1.314;2023-04-19T01:11:01;170;156;
36453;PMS5003;22478;51.740;-1.314;2023-04-19T01:13:28;180;162;
36453;PMS5003;22478;51.740;-1.314;2023-04-19T01:15:55;183;175;
36453;PMS5003;22478;51.740;-1.314;2023-04-19T01:18:23;171;157;
36453;PMS5003;22478;51.740;-1.314;2023-04-19T01:20:50;178;162;
36453;PMS5003;22478;51.740;-1.314;2023-04-19T01:23:18;170;155;
36453;PMS5003;22478;51.740;-1.314;2023-04-19T01:25:46;167;150;
36453;PMS5003;22478;51.740;-1.314;2023-04-19T01:28:13;165;156;
36453;PMS5003;22478;51.740;-1.314;2023-04-19T01:30:40;158;145;
36453;PMS5003;22478;51.740;-1.314;2023-04-19T01:33:08;185;169;
36453;PMS5003;22478;51.740;-1.314;2023-04-19T01:35:35;179;160;
36453;PMS5003;22478;51.740;-1.314;2023-04-19T01:38:03;170;165;
36453;PMS5003;22478;51.740;-1.314;2023-04-19T01:40:30;183;164;
36453;PMS5003;22478;51.740;-1.314;2023-04-19T01:42:57;187;167;
36453;PMS5003;22478;51.740;-1.314;2023-04-19T01:45:25;205;181;
36453;PMS5003;22478;51.740;-1.314;2023-04-19T01:47:52;170;151;
36453;PMS5003;22478;51.740;-1.314;2023-04-19T01:50:19;165;146;
36453;PMS5003;22478;51.740;-1.314;2023-04-19T01:52:47;186;168;
36453;PMS5003;22478;51.740;-1.314;2023-04-19T01:55:14;163;153;
36453;PMS5003;22478;51.740;-1.314;2023-04-19T01:57:42;169;155;
36453;PMS5003;22478;51.740;-1.314;2023-04-19T02:00:10;180;160;
36453;PMS5003;22478;51.740;-1.314;2023-04-19T02:02:38;185;162;
36453;PMS5003;22478;51.740;-1.314;2023-04-19T02:05:06;186;165;
36453;PMS5003;22478;51.740;-1.314;2023-04-19T02:07:34;197;168;
36453;PMS5003;22478;51.740;-1.314;2023-04-19T02:10:02;181;174;
36453;PMS5003;22478;51.740;-1.314;2023-04-19T02:12:30;169;153;
36453;PMS5003;22478;51.740;-1.314;2023-04-19T02:14:59;178;167;
36453;PMS5003;22478;51.740;-1.314;2023-04-19T02:17:27;186;168;
36453;PMS5003;22478;51.740;-1.314;2023-04-19T02:19:54;183;160;
36453;PMS5003;22478;51.740;-1.314;2023-04-19T02:22:21;179;163;
36453;PMS5003;22478;51.740;-1.314;2023-04-19T02:24:49;177;159;
36453;PMS5003;22478;51.740;-1.314;2023-04-19T02:27:17;188;176;
36453;PMS5003;22478;51.740;-1.314;2023-04-19T02:29:44;187;166;
36453;PMS5003;22478;51.740;-1.314;2023-04-19T02:32:12;172;154;
36453;PMS5003;22478;51.740;-1.314;2023-04-19T02:34:39;173;152;
36453;PMS5003;22478;51.740;-1.314;2023-04-19T02:37:07;170;160;
36453;PMS5003;22478;51.740;-1.314;2023-04-19T02:39:34;190;168;
36453;PMS5003;22478;51.740;-1.314;2023-04-19T02:42:02;157;151;
36453;PMS5003;22478;51.740;-1.314;2023-04-19T02:44:29;176;155;
36453;PMS5003;22478;51.740;-1.314;2023-04-19T02:46:56;173;165;
36453;PMS5003;22478;51.740;-1.314;2023-04-19T02:49:24;184;164;
36453;PMS5003;22478;51.740;-1.314;2023-04-19T02:51:51;186;160;
36453;PMS5003;22478;51.740;-1.314;2023-04-19T02:54:18;179;157;
36453;PMS5003;22478;51.740;-1.314;2023-04-19T02:56:45;162;152;
36453;PMS5003;22478;51.740;-1.314;2023-04-19T02:59:13;170;152;
36453;PMS5003;22478;51.740;-1.314;2023-04-19T03:01:40;172;153;
36453;PMS5003;22478;51.740;-1.314;2023-04-19T03:04:08;177;158;
36453;PMS5003;22478;51.740;-1.314;2023-04-19T03:06:35;173;153;
36453;PMS5003;22478;51.740;-1.314;2023-04-19T03:09:03;168;155;
36453;PMS5003;22478;51.740;-1.314;2023-04-19T03:11:30;181;161;
36453;PMS5003;22478;51.740;-1.314;2023-04-19T03:13:58;168;156;
36453;PMS5003;22478;51.740;-1.314;2023-04-19T03:16:25;162;161;
36453;PMS5003;22478;51.740;-1.314;2023-04-19T03:18:53;167;144;
36453;PMS5003;22478;51.740;-1.314;2023-04-19T03:21:20;176;163;
36453;PMS5003;22478;51.740;-1.314;2023-04-19T03:23:48;189;165;
36453;PMS5003;22478;51.740;-1.314;2023-04-19T03:26:14;169;159;
36453;PMS5003;22478;51.740;-1.314;2023-04-19T03:28:42;168;163;
36453;PMS5003;22478;51.740;-1.314;2023-04-19T03:31:09;158;150;
36453;PMS5003;22478;51.740;-1.314;2023-04-19T03:33:36;164;157;
36453;PMS5003;22478;51.740;-1.314;2023-04-19T03:36:03;177;157;
36453;PMS5003;22478;51.740;-1.314;2023-04-19T03:38:31;171;148;
36453;PMS5003;22478;51.740;-1.314;2023-04-19T03:40:58;163;151;
36453;PMS5003;22478;51.740;-1.314;2023-04-19T03:43:26;169;152;
36453;PMS5003;22478;51.740;-1.314;2023-04-19T03:45:53;165;147;
36453;PMS5003;22478;51.740;-1.314;2023-04-19T03:48:19;168;145;
36453;PMS5003;22478;51.740;-1.314;2023-04-19T03:50:47;174;154;
36453;PMS5003;22478;51.740;-1.314;2023-04-19T03:53:14;162;156;
36453;PMS5003;22478;51.740;-1.314;2023-04-19T03:55:42;163;157;
36453;PMS5003;22478;51.740;-1.314;2023-04-19T03:58:09;173;162;
36453;PMS5003;22478;51.740;-1.314;2023-04-19T04:00:36;170;146;
36453;PMS5003;22478;51.740;-1.314;2023-04-19T04:03:03;173;155;
36453;PMS5003;22478;51.740;-1.314;2023-04-19T04:05:30;204;173;
36453;PMS5003;22478;51.740;-1.314;2023-04-19T04:07:57;183;163;
36453;PMS5003;22478;51.740;-1.314;2023-04-19T04:10:24;179;158;
36453;PMS5003;22478;51.740;-1.314;2023-04-19T04:12:52;187;167;
36453;PMS5003;22478;51.740;-1.314;2023-04-19T04:15:19;194;172;
36453;PMS5003;22478;51.740;-1.314;2023-04-19T04:17:47;185;174;
36453;PMS5003;22478;51.740;-1.314;2023-04-19T04:20:14;178;170;
36453;PMS5003;22478;51.740;-1.314;2023-04-19T04:22:41;192;169;
36453;PMS5003;22478;51.740;-1.314;2023-04-19T04:25:09;181;175;
36453;PMS5003;22478;51.740;-1.314;2023-04-19T04:27:37;186;170;
36453;PMS5003;22478;51.740;-1.314;2023-04-19T04:30:05;211;185;
36453;PMS5003;22478;51.740;-1.314;2023-04-19T04:32:33;171;164;
36453;PMS5003;22478;51.740;-1.314;2023-04-19T04:35:01;189;171;
36453;PMS5003;22478;51.740;-1.314;2023-04-19T04:37:29;185;168;
36453;PMS5003;22478;51.740;-1.314;2023-04-19T04:39:57;182;168;
36453;PMS5003;22478;51.740;-1.314;2023-04-19T04:42:24;197;170;
36453;PMS5003;22478;51.740;-1.314;2023-04-19T04:44:52;203;186;
36453;PMS5003;22478;51.740;-1.314;2023-04-19T04:47:19;182;171;
36453;PMS5003;22478;51.740;-1.314;2023-04-19T04:49:46;197;172;
36453;PMS5003;22478;51.740;-1.314;2023-04-19T04:52:14;177;165;
36453;PMS5003;22478;51.740;-1.314;2023-04-19T04:54:42;197;178;
36453;PMS5003;22478;51.740;-1.314;2023-04-19T04:57:08;197;178;
36453;PMS5003;22478;51.740;-1.314;2023-04-19T04:59:36;201;177;
36453;PMS5003;22478;51.740;-1.314;2023-04-19T05:02:03;181;172;
36453;PMS5003;22478;51.740;-1.314;2023-04-19T05:04:30;205;186;
36453;PMS5003;22478;51.740;-1.314;2023-04-19T05:06:57;203;185;
36453;PMS5003;22478;51.740;-1.314;2023-04-19T05:09:25;211;185;
36453;PMS5003;22478;51.740;-1.314;2023-04-19T05:11:52;187;173;
36453;PMS5003;22478;51.740;-1.314;2023-04-19T05:14:19;215;188;
36453;PMS5003;22478;51.740;-1.314;2023-04-19T05:16:47;191;167;
36453;PMS5003;22478;51.740;-1.314;2023-04-19T05:19:14;191;171;
36453;PMS5003;22478;51.740;-1.314;2023-04-19T05:21:41;181;167;
36453;PMS5003;22478;51.740;-1.314;2023-04-19T05:24:08;179;172;
36453;PMS5003;22478;51.740;-1.314;2023-04-19T05:26:35;192;167;
36453;PMS5003;22478;51.740;-1.314;2023-04-19T05:29:02;172;165;
36453;PMS5003;22478;51.740;-1.314;2023-04-19T05:31:30;200;172;
36453;PMS5003;22478;51.740;-1.314;2023-04-19T05:33:57;197;169;
36453;PMS5003;22478;51.740;-1.314;2023-04-19T05:36:25;189;173;
36453;PMS5003;22478;51.740;-1.314;2023-04-19T05:38:52;174;160;
36453;PMS5003;22478;51.740;-1.314;2023-04-19T05:41:19;191;180;
36453;PMS5003;22478;51.740;-1.314;2023-04-19T05:43:46;190;171;
36453;PMS5003;22478;51.740;-1.314;2023-04-19T05:46:13;184;168;
36453;PMS5003;22478;51.740;-1.314;2023-04-19T05:48:40;196;171;
36453;PMS5003;22478;51.740;-1.314;2023-04-19T05:51:08;183;167;
36453;PMS5003;22478;51.740;-1.314;2023-04-19T05:53:35;181;158;
36453;PMS5003;22478;51.740;-1.314;2023-04-19T05:56:03;187;166;
36453;PMS5003;22478;51.740;-1.314;2023-04-19T05:58:30;174;156;
36453;PMS5003;22478;51.740;-1.314;2023-04-19T06:00:57;195;167;
36453;PMS5003;22478;51.740;-1.314;2023-04-19T06:03:24;187;159;
36453;PMS5003;22478;51.740;-1.314;2023-04-19T06:05:51;191;178;
36453;PMS5003;22478;51.740;-1.314;2023-04-19T06:08:19;192;167;
36453;PMS5003;22478;51.740;-1.314;2023-04-19T06:10:46;184;161;
36453;PMS5003;22478;51.740;-1.314;2023-04-19T06:13:13;155;149;
36453;PMS5003;22478;51.740;-1.314;2023-04-19T06:15:40;194;169;
36453;PMS5003;22478;51.740;-1.314;2023-04-19T06:18:07;182;155;
36453;PMS5003;22478;51.740;-1.314;2023-04-19T06:20:35;193;171;
36453;PMS5003;22478;51.740;-1.314;2023-04-19T06:23:02;182;164;
36453;PMS5003;22478;51.740;-1.314;2023-04-19T06:25:30;188;162;
36453;PMS5003;22478;51.740;-1.314;2023-04-19T06:27:58;191;173;
36453;PMS5003;22478;51.740;-1.314;2023-04-19T06:30:25;190;166;
36453;PMS5003;22478;51.740;-1.314;2023-04-19T06:32:53;178;165;
36453;PMS5003;22478;51.740;-1.314;2023-04-19T06:35:20;191;174;
36453;PMS5003;22478;51.740;-1.314;2023-04-19T06:37:47;194;164;
36453;PMS5003;22478;51.740;-1.314;2023-04-19T06:40:15;180;159;
36453;PMS5003;22478;51.740;-1.314;2023-04-19T06:42:42;172;160;
36453;PMS5003;22478;51.740;-1.314;2023-04-19T06:45:10;187;166;
36453;PMS5003;22478;51.740;-1.314;2023-04-19T06:47:38;197;171;
36453;PMS5003;22478;51.740;-1.314;2023-04-19T06:50:05;179;167;
36453;PMS5003;22478;51.740;-1.314;2023-04-19T06:52:33;200;178;
36453;PMS5003;22478;51.740;-1.314;2023-04-19T06:55:01;197;177;
36453;PMS5003;22478;51.740;-1.314;2023-04-19T06:57:29;198;179;
36453;PMS5003;22478;51.740;-1.314;2023-04-19T06:59:56;201;177;
36453;PMS5003;22478;51.740;-1.314;2023-04-19T07:02:23;179;170;
36453;PMS5003;22478;51.740;-1.314;2023-04-19T07:04:51;184;170;
36453;PMS5003;22478;51.740;-1.314;2023-04-19T07:07:18;180;168;
36453;PMS5003;22478;51.740;-1.314;2023-04-19T07:09:46;181;169;
36453;PMS5003;22478;51.740;-1.314;2023-04-19T07:12:13;198;172;
36453;PMS5003;22478;51.740;-1.314;2023-04-19T07:14:40;178;170;
36453;PMS5003;22478;51.740;-1.314;2023-04-19T07:17:07;189;164;
36453;PMS5003;22478;51.740;-1.314;2023-04-19T07:19:34;179;157;
36453;PMS5003;22478;51.740;-1.314;2023-04-19T07:22:02;189;168;
36453;PMS5003;22478;51.740;-1.314;2023-04-19T07:24:29;189;169;
36453;PMS5003;22478;51.740;-1.314;2023-04-19T07:26:57;191;185;
36453;PMS5003;22478;51.740;-1.314;2023-04-19T07:29:24;202;185;
36453;PMS5003;22478;51.740;-1.314;2023-04-19T07:31:52;186;179;
36453;PMS5003;22478;51.740;-1.314;2023-04-19T07:34:19;167;158;
36453;PMS5003;22478;51.740;-1.314;2023-04-19T07:36:46;176;159;
36453;PMS5003;22478;51.740;-1.314;2023-04-19T07:39:13;184;179;
36453;PMS5003;22478;51.740;-1.314;2023-04-19T07:41:41;201;185;
36453;PMS5003;22478;51.740;-1.314;2023-04-19T07:44:08;207;190;
36453;PMS5003;22478;51.740;-1.314;2023-04-19T07:46:35;194;182;
36453;PMS5003;22478;51.740;-1.314;2023-04-19T07:49:03;166;149;
36453;PMS5003;22478;51.740;-1.314;2023-04-19T07:51:30;174;159;
36453;PMS5003;22478;51.740;-1.314;2023-04-19T07:53:57;160;148;
36453;PMS5003;22478;51.740;-1.314;2023-04-19T07:56:24;164;151;
36453;PMS5003;22478;51.740;-1.314;2023-04-19T07:58:51;176;159;
36453;PMS5003;22478;51.740;-1.314;2023-04-19T08:01:19;170;156;
36453;PMS5003;22478;51.740;-1.314;2023-04-19T08:03:46;171;160;
36453;PMS5003;22478;51.740;-1.314;2023-04-19T08:06:13;170;154;
36453;PMS5003;22478;51.740;-1.314;2023-04-19T08:08:40;163;148;
36453;PMS5003;22478;51.740;-1.314;2023-04-19T08:11:07;157;147;
36453;PMS5003;22478;51.740;-1.314;2023-04-19T08:13:34;164;143;
36453;PMS5003;22478;51.740;-1.314;2023-04-19T08:16:02;171;155;
36453;PMS5003;22478;51.740;-1.314;2023-04-19T08:18:30;164;150;
36453;PMS5003;22478;51.740;-1.314;2023-04-19T08:20:58;168;152;
36453;PMS5003;22478;51.740;-1.314;2023-04-19T08:23:26;162;147;
36453;PMS5003;22478;51.740;-1.314;2023-04-19T08:25:53;153;140;
36453;PMS5003;22478;51.740;-1.314;2023-04-19T08:28:21;152;140;
36453;PMS5003;22478;51.740;-1.314;2023-04-19T08:30:49;154;146;
36453;PMS5003;22478;51.740;-1.314;2023-04-19T08:33:16;162;145;
36453;PMS5003;22478;51.740;-1.314;2023-04-19T08:35:43;146;138;
36453;PMS5003;22478;51.740;-1.314;2023-04-19T08:38:11;160;151;
36453;PMS5003;22478;51.740;-1.314;2023-04-19T08:40:40;159;147;
36453;PMS5003;22478;51.740;-1.314;2023-04-19T08:43:11;153;140;
36453;PMS5003;22478;51.740;-1.314;2023-04-19T08:45:38;145;133;
36453;PMS5003;22478;51.740;-1.314;2023-04-19T08:48:07;152;143;
36453;PMS5003;22478;51.740;-1.314;2023-04-19T08:50:35;144;138;
36453;PMS5003;22478;51.740;-1.314;2023-04-19T08:53:04;155;141;
36453;PMS5003;22478;51.740;-1.314;2023-04-19T08:55:33;145;135;
36453;PMS5003;22478;51.740;-1.314;2023-04-19T08:58:01;144;137;
36453;PMS5003;22478;51.740;-1.314;2023-04-19T09:00:30;137;131;
36453;PMS5003;22478;51.740;-1.314;2023-04-19T09:02:59;148;132;
36453;PMS5003;22478;51.740;-1.314;2023-04-19T09:05:26;127;118;
36453;PMS5003;22478;51.740;-1.314;2023-04-19T09:07:54;118;112;
36453;PMS5003;22478;51.740;-1.314;2023-04-19T09:10:51;99;95;
36453;PMS5003;22478;51.740;-1.314;2023-04-19T09:13:18;119;110;
36453;PMS5003;22478;51.740;-1.314;2023-04-19T09:15:46;101;90;
36453;PMS5003;22478;51.740;-1.314;2023-04-19T09:18:13;104;93;
36453;PMS5003;22478;51.740;-1.314;2023-04-19T09:20:41;114;106;
36453;PMS5003;22478;51.740;-1.314;2023-04-19T09:23:10;104;96;
36453;PMS5003;22478;51.740;-1.314;2023-04-19T09:25:39;89;84;
36453;PMS5003;22478;51.740;-1.314;2023-04-19T09:28:16;99;85;
36453;PMS5003;22478;51.740;-1.314;2023-04-19T09:30:43;90;82;
36453;PMS5003;22478;51.740;-1.314;2023-04-19T09:33:10;96;89;
36453;PMS5003;22478;51.740;-1.314;2023-04-19T09:35:39;93;87;
36453;PMS5003;22478;51.740;-1.314;2023-04-19T09:38:07;94;89;
36453;PMS5003;22478;51.740;-1.314;2023-04-19T09:40:35;82;80;
36453;PMS5003;22478;51.740;-1.314;2023-04-19T09:43:02;95;88;
36453;PMS5003;22478;51.740;-1.314;2023-04-19T09:45:38;82;75;
36453;PMS5003;22478;51.740;-1.314;2023-04-19T09:48:06;85;77;
36453;PMS5003;22478;51.740;-1.314;2023-04-19T09:50:35;95;86;
36453;PMS5003;22478;51.740;-1.314;2023-04-19T09:53:16;99;92;
36453;PMS5003;22478;51.740;-1.314;2023-04-19T09:55:44;91;82;
36453;PMS5003;22478;51.740;-1.314;2023-04-19T09:58:12;99;88;
36453;PMS5003;22478;51.740;-1.314;2023-04-19T10:00:40;97;85;
36453;PMS5003;22478;51.740;-1.314;2023-04-19T10:03:09;82;78;
36453;PMS5003;22478;51.740;-1.314;2023-04-19T10:05:37;89;84;
36453;PMS5003;22478;51.740;-1.314;2023-04-19T10:08:06;92;82;
36453;PMS5003;22478;51.740;-1.314;2023-04-19T10:10:34;87;76;
36453;PMS5003;22478;51.740;-1.314;2023-04-19T10:13:02;86;77;
36453;PMS5003;22478;51.740;-1.314;2023-04-19T10:15:33;91;80;
36453;PMS5003;22478;51.740;-1.314;2023-04-19T10:18:03;99;88;
36453;PMS5003;22478;51.740;-1.314;2023-04-19T10:20:32;84;76;
36453;PMS5003;22478;51.740;-1.314;2023-04-19T10:23:05;86;80;
36453;PMS5003;22478;51.740;-1.314;2023-04-19T10:25:35;84;80;
36453;PMS5003;22478;51.740;-1.314;2023-04-19T10:28:03;96;79;
36453;PMS5003;22478;51.740;-1.314;2023-04-19T10:30:30;91;81;
36453;PMS5003;22478;51.740;-1.314;2023-04-19T10:32:58;84;75;
36453;PMS5003;22478;51.740;-1.314;2023-04-19T10:35:27;94;85;
36453;PMS5003;22478;51.740;-1.314;2023-04-19T10:38:03;103;92;
36453;PMS5003;22478;51.740;-1.314;2023-04-19T10:41:04;95;93;
36453;PMS5003;22478;51.740;-1.314;2023-04-19T10:43:32;89;82;
36453;PMS5003;22478;51.740;-1.314;2023-04-19T10:46:01;86;78;
36453;PMS5003;22478;51.740;-1.314;2023-04-19T10:48:34;78;75;
36453;PMS5003;22478;51.740;-1.314;2023-04-19T10:51:03;84;74;
36453;PMS5003;22478;51.740;-1.314;2023-04-19T10:53:52;82;73;
36453;PMS5003;22478;51.740;-1.314;2023-04-19T10:56:55;91;78;
36453;PMS5003;22478;51.740;-1.314;2023-04-19T10:59:25;89;78;
36453;PMS5003;22478;51.740;-1.314;2023-04-19T11:01:53;84;76;
36453;PMS5003;22478;51.740;-1.314;2023-04-19T11:04:23;63;56;
36453;PMS5003;22478;51.740;-1.314;2023-04-19T11:07:24;60;55;
36453;PMS5003;22478;51.740;-1.314;2023-04-19T11:09:51;77;70;
36453;PMS5003;22478;51.740;-1.314;2023-04-19T11:12:19;63;58;
36453;PMS5003;22478;51.740;-1.314;2023-04-19T11:14:47;64;60;
36453;PMS5003;22478;51.740;-1.314;2023-04-19T11:17:18;63;57;
36453;PMS5003;22478;51.740;-1.314;2023-04-19T11:19:52;73;61;
36453;PMS5003;22478;51.740;-1.314;2023-04-19T11:22:24;78;68;
36453;PMS5003;22478;51.740;-1.314;2023-04-19T11:24:55;63;58;
36453;PMS5003;22478;51.740;-1.314;2023-04-19T11:27:22;58;53;
36453;PMS5003;22478;51.740;-1.314;2023-04-19T11:29:50;62;52;
36453;PMS5003;22478;51.740;-1.314;2023-04-19T11:32:19;67;61;
36453;PMS5003;22478;51.740;-1.314;2023-04-19T11:34:47;57;49;
36453;PMS5003;22478;51.740;-1.314;2023-04-19T11:37:14;53;45;
36453;PMS5003;22478;51.740;-1.314;2023-04-19T11:39:45;63;54;
36453;PMS5003;22478;51.740;-1.314;2023-04-19T11:42:16;63;57;
36453;PMS5003;22478;51.740;-1.314;2023-04-19T11:44:48;74;63;
36453;PMS5003;22478;51.740;-1.314;2023-04-19T11:47:16;57;52;
36453;PMS5003;22478;51.740;-1.314;2023-04-19T11:49:44;57;51;
36453;PMS5003;22478;51.740;-1.314;2023-04-19T11:52:11;44;39;
36453;PMS5003;22478;51.740;-1.314;2023-04-19T11:54:47;46;42;
36453;PMS5003;22478;51.740;-1.314;2023-04-19T11:57:25;48;47;
36453;PMS5003;22478;51.740;-1.314;2023-04-19T12:00:01;41;38;
36453;PMS5003;22478;51.740;-1.314;2023-04-19T12:02:30;50;47;
36453;PMS5003;22478;51.740;-1.314;2023-04-19T12:05:05;49;42;
36453;PMS5003;22478;51.740;-1.314;2023-04-19T12:07:33;43;37;
36453;PMS5003;22478;51.740;-1.314;2023-04-19T12:10:06;52;43;
36453;PMS5003;22478;51.740;-1.314;2023-04-19T12:12:34;51;46;
36453;PMS5003;22478;51.740;-1.314;2023-04-19T12:15:02;50;43;
36453;PMS5003;22478;51.740;-1.314;2023-04-19T12:17:29;40;36;
36453;PMS5003;22478;51.740;-1.314;2023-04-19T12:19:57;41;34;
36453;PMS5003;22478;51.740;-1.314;2023-04-19T12:22:25;45;41;
36453;PMS5003;22478;51.740;-1.314;2023-04-19T12:24:52;49;42;
36453;PMS5003;22478;51.740;-1.314;2023-04-19T12:27:19;54;43;
36453;PMS5003;22478;51.740;-1.314;2023-04-19T12:29:47;49;45;
36453;PMS5003;22478;51.740;-1.314;2023-04-19T12:32:14;45;39;
36453;PMS5003;22478;51.740;-1.314;2023-04-19T12:34:41;53;47;
36453;PMS5003;22478;51.740;-1.314;2023-04-19T12:37:08;59;52;
36453;PMS5003;22478;51.740;-1.314;2023-04-19T12:39:35;57;52;
36453;PMS5003;22478;51.740;-1.314;2023-04-19T12:42:02;55;48;
36453;PMS5003;22478;51.740;-1.314;2023-04-19T12:44:29;66;55;
36453;PMS5003;22478;51.740;-1.314;2023-04-19T12:46:57;49;44;
36453;PMS5003;22478;51.740;-1.314;2023-04-19T12:49:24;55;47;
36453;PMS5003;22478;51.740;-1.314;2023-04-19T12:51:52;51;49;
36453;PMS5003;22478;51.740;-1.314;2023-04-19T12:54:19;51;46;
36453;PMS5003;22478;51.740;-1.314;2023-04-19T12:56:46;46;42;
36453;PMS5003;22478;51.740;-1.314;2023-04-19T12:59:14;60;56;
36453;PMS5003;22478;51.740;-1.314;2023-04-19T13:01:41;43;40;
36453;PMS5003;22478;51.740;-1.314;2023-04-19T13:04:08;43;39;
36453;PMS5003;22478;51.740;-1.314;2023-04-19T13:06:35;42;39;
36453;PMS5003;22478;51.740;-1.314;2023-04-19T13:09:03;43;38;
36453;PMS5003;22478;51.740;-1.314;2023-04-19T13:11:31;44;38;
36453;PMS5003;22478;51.740;-1.314;2023-04-19T13:13:59;41;36;
36453;PMS5003;22478;51.740;-1.314;2023-04-19T13:16:25;40;39;
36453;PMS5003;22478;51.740;-1.314;2023-04-19T13:18:53;40;35;
36453;PMS5003;22478;51.740;-1.314;2023-04-19T13:21:21;37;35;
36453;PMS5003;22478;51.740;-1.314;2023-04-19T13:23:48;38;35;
36453;PMS5003;22478;51.740;-1.314;2023-04-19T13:26:16;52;46;
36453;PMS5003;22478;51.740;-1.314;2023-04-19T13:28:43;38;35;
36453;PMS5003;22478;51.740;-1.314;2023-04-19T13:31:10;41;36;
36453;PMS5003;22478;51.740;-1.314;2023-04-19T13:33:38;39;36;
36453;PMS5003;22478;51.740;-1.314;2023-04-19T13:36:05;42;36;
36453;PMS5003;22478;51.740;-1.314;2023-04-19T13:38:33;45;41;
36453;PMS5003;22478;51.740;-1.314;2023-04-19T13:41:01;48;37;
36453;PMS5003;22478;51.740;-1.314;2023-04-19T13:43:29;33;30;
36453;PMS5003;22478;51.740;-1.314;2023-04-19T13:45:56;38;37;
36453;PMS5003;22478;51.740;-1.314;2023-04-19T13:48:24;40;36;
36453;PMS5003;22478;51.740;-1.314;2023-04-19T13:50:52;40;38;
36453;PMS5003;22478;51.740;-1.314;2023-04-19T13:53:19;38;35;
36453;PMS5003;22478;51.740;-1.314;2023-04-19T13:55:47;30;27;
36453;PMS5003;22478;51.740;-1.314;2023-04-19T13:58:14;36;29;
36453;PMS5003;22478;51.740;-1.314;2023-04-19T14:00:41;37;32;
36453;PMS5003;22478;51.740;-1.314;2023-04-19T14:03:09;43;39;
36453;PMS5003;22478;51.740;-1.314;2023-04-19T14:05:36;40;36;
36453;PMS5003;22478;51.740;-1.314;2023-04-19T14:08:03;39;37;
36453;PMS5003;22478;51.740;-1.314;2023-04-19T14:10:31;31;30;
36453;PMS5003;22478;51.740;-1.314;2023-04-19T14:12:58;39;38;
36453;PMS5003;22478;51.740;-1.314;2023-04-19T14:15:26;33;33;
36453;PMS5003;22478;51.740;-1.314;2023-04-19T14:17:53;29;26;
36453;PMS5003;22478;51.740;-1.314;2023-04-19T14:20:20;32;30;
36453;PMS5003;22478;51.740;-1.314;2023-04-19T14:22:47;26;26;
36453;PMS5003;22478;51.740;-1.314;2023-04-19T14:25:14;28;25;
36453;PMS5003;22478;51.740;-1.314;2023-04-19T14:27:41;35;34;
36453;PMS5003;22478;51.740;-1.314;2023-04-19T14:30:09;33;31;
36453;PMS5003;22478;51.740;-1.314;2023-04-19T14:32:37;32;29;
36453;PMS5003;22478;51.740;-1.314;2023-04-19T14:35:04;39;34;
36453;PMS5003;22478;51.740;-1.314;2023-04-19T14:37:33;35;29;
36453;PMS5003;22478;51.740;-1.314;2023-04-19T14:40:00;34;29;
36453;PMS5003;22478;51.740;-1.314;2023-04-19T14:42:28;26;26;
36453;PMS5003;22478;51.740;-1.314;2023-04-19T14:44:56;34;31;
36453;PMS5003;22478;51.740;-1.314;2023-04-19T14:47:24;32;28;
36453;PMS5003;22478;51.740;-1.314;2023-04-19T14:49:51;24;24;
36453;PMS5003;22478;51.740;-1.314;2023-04-19T14:52:19;31;26;
36453;PMS5003;22478;51.740;-1.314;2023-04-19T14:54:46;26;25;
36453;PMS5003;22478;51.740;-1.314;2023-04-19T14:57:13;32;31;
36453;PMS5003;22478;51.740;-1.314;2023-04-19T14:59:41;39;34;
36453;PMS5003;22478;51.740;-1.314;2023-04-19T15:02:08;32;32;
36453;PMS5003;22478;51.740;-1.314;2023-04-19T15:04:35;38;35;
36453;PMS5003;22478;51.740;-1.314;2023-04-19T15:07:03;28;25;
36453;PMS5003;22478;51.740;-1.314;2023-04-19T15:09:30;29;26;
36453;PMS5003;22478;51.740;-1.314;2023-04-19T15:11:57;39;34;
36453;PMS5003;22478;51.740;-1.314;2023-04-19T15:14:24;43;40;
36453;PMS5003;22478;51.740;-1.314;2023-04-19T15:16:52;29;25;
36453;PMS5003;22478;51.740;-1.314;2023-04-19T15:19:19;28;28;
36453;PMS5003;22478;51.740;-1.314;2023-04-19T15:21:46;40;36;
36453;PMS5003;22478;51.740;-1.314;2023-04-19T15:24:14;30;27;
36453;PMS5003;22478;51.740;-1.314;2023-04-19T15:26:40;26;22;
36453;PMS5003;22478;51.740;-1.314;2023-04-19T15:29:08;30;30;
36453;PMS5003;22478;51.740;-1.314;2023-04-19T15:31:35;33;30;
36453;PMS5003;22478;51.740;-1.314;2023-04-19T15:34:02;33;31;
36453;PMS5003;22478;51.740;-1.314;2023-04-19T15:36:29;38;37;
36453;PMS5003;22478;51.740;-1.314;2023-04-19T15:38:57;36;33;
36453;PMS5003;22478;51.740;-1.314;2023-04-19T15:41:24;25;25;
36453;PMS5003;22478;51.740;-1.314;2023-04-19T15:43:52;30;26;
36453;PMS5003;22478;51.740;-1.314;2023-04-19T15:46:20;27;22;
36453;PMS5003;22478;51.740;-1.314;2023-04-19T15:48:47;22;19;
36453;PMS5003;22478;51.740;-1.314;2023-04-19T15:51:14;16;16;